Time;durP1;ratioP1;P1;durP2;ratioP2;P2;SDS_P1;SDS_P2;PMS_P1;PMS_P2;Temp;Humidity;BMP_temperature;BMP_pressure;BME280_temperature;BME280_humidity;BME280_pressure;Samples;Min_cycle;Max_cycle;Signal;HPM_P1;HPM_P2
2022/02/25 05:13:33;;;;;;;;;;;;;;;1.81;67.72;98396.19;5060300;28;19928;-91
2022/02/25 05:25:15;;;;;;;;;;;;;;;1.87;66.77;98413.19;5088516;28;19920;-92
2022/02/25 05:27:45;;;;;;;;;;;;;;;1.96;66.99;98411.72;5083447;28;23643;-91
2022/02/25 05:38:00;;;;;;;;;;;;;;;1.95;66.27;98429.66;5080138;28;19920;-92
2022/02/25 05:45:11;;;;;;;;;;;;;;;1.81;66.30;98444.41;5079472;28;19928;-90
2022/02/25 05:48:01;;;;;;;;;;;;;;;1.65;66.93;98453.22;5068382;28;19935;-91
2022/02/25 05:55:11;;;;;;;;;;;;;;;1.86;65.97;98455.22;5084876;28;19927;-81
2022/02/25 05:57:40;;;;;;;;;;;;;;;1.83;66.06;98464.56;5087763;28;20295;-86
2022/02/25 06:00:09;;;;;;;;;;;;;;;1.68;66.67;98458.13;5085646;28;19931;-85
2022/02/25 06:02:39;;;;;;;;;;;;;;;1.76;66.11;98455.88;5090109;28;19924;-86
2022/02/25 06:05:10;;;;;;;;;;;;;;;1.54;66.80;98465.63;5081203;28;19932;-80
2022/02/25 06:08:04;;;;;;;;;;;;;;;1.62;66.47;98467.13;5085651;28;19940;-88
2022/02/25 06:10:31;;;;;;;;;;;;;;;1.73;65.87;98476.97;5063402;28;19954;-85
2022/02/25 06:13:00;;;;;;;;;;;;;;;1.65;66.66;98472.81;5086786;28;19928;-84
2022/02/25 06:15:32;;;;;;;;;;;;;;;1.63;66.02;98480.25;5091455;28;19946;-91
2022/02/25 06:18:00;;;;;;;;;;;;;;;1.71;66.13;98487.13;5076681;28;20440;-90
2022/02/25 06:20:32;;;;;;;;;;;;;;;1.70;66.11;98480.09;5064612;28;20295;-91
2022/02/25 06:23:02;;;;;;;;;;;;;;;1.72;65.73;98488.75;5073701;28;19924;-93
2022/02/25 06:25:30;;;;;;;;;;;;;;;1.73;65.74;98491.16;5086026;28;19924;-79
2022/02/25 06:27:57;;;;;;;;;;;;;;;1.68;65.97;98492.94;5090949;28;19933;-79
2022/02/25 06:30:25;;;;;;;;;;;;;;;1.80;66.06;98496.38;5063162;28;19936;-78
2022/02/25 06:32:53;;;;;;;;;;;;;;;1.78;65.72;98498.50;5087010;28;19925;-80
2022/02/25 06:35:23;;;;;;;;;;;;;;;1.61;66.16;98503.00;5089824;28;20417;-82
2022/02/25 06:37:52;;;;;;;;;;;;;;;1.61;66.43;98505.66;5094108;28;20117;-80
2022/02/25 06:40:20;;;;;;;;;;;;;;;1.64;66.30;98508.66;5093586;28;19985;-81
2022/02/25 06:42:49;;;;;;;;;;;;;;;1.71;66.12;98503.19;5089609;28;19931;-80
2022/02/25 06:45:17;;;;;;;;;;;;;;;1.73;66.21;98509.09;5077087;28;19928;-81
2022/02/25 06:47:45;;;;;;;;;;;;;;;1.65;65.92;98506.78;5072441;28;20409;-80
2022/02/25 06:50:13;;;;;;;;;;;;;;;1.76;65.84;98506.78;5091998;28;19946;-79
2022/02/25 06:52:41;;;;;;;;;;;;;;;1.86;65.52;98511.47;5093424;28;19928;-80
2022/02/25 06:55:13;;;;;;;;;;;;;;;1.84;65.83;98510.91;5095293;28;19924;-83
2022/02/25 06:58:02;;;;;;;;;;;;;;;1.84;65.55;98510.91;5105226;28;19924;-78
2022/02/25 07:00:30;;;;;;;;;;;;;;;1.93;65.59;98519.41;5112238;28;19924;-79
2022/02/25 07:02:58;;;;;;;;;;;;;;;1.74;65.70;98513.41;5102739;28;20057;-81
2022/02/25 07:05:51;;;;;;;;;;;;;;;1.89;65.83;98518.25;5097201;28;20378;-82
2022/02/25 07:08:21;;;;;;;;;;;;;;;1.91;65.17;98524.16;5073391;28;19924;-81
2022/02/25 07:10:51;;;;;;;;;;;;;;;1.86;65.45;98530.25;5084064;28;19931;-80
2022/02/25 07:13:19;;;;;;;;;;;;;;;1.83;65.59;98528.88;5087554;28;19959;-83
2022/02/25 07:15:51;;;;;;;;;;;;;;;2.05;64.80;98531.69;5082326;28;19930;-80
2022/02/25 07:18:19;;;;;;;;;;;;;;;1.99;64.89;98539.88;5087046;28;20023;-78
2022/02/25 07:20:47;;;;;;;;;;;;;;;1.93;65.00;98532.78;5089573;28;19952;-79
2022/02/25 07:23:16;;;;;;;;;;;;;;;1.97;64.84;98529.41;5084249;28;20440;-81
2022/02/25 07:25:44;;;;;;;;;;;;;;;2.03;64.95;98536.47;5083032;28;20337;-81
2022/02/25 07:28:13;;;;;;;;;;;;;;;2.40;64.45;98538.72;5066772;28;20313;-81
2022/02/25 07:30:41;;;;;;;;;;;;;;;2.29;64.46;98553.81;5085466;28;19924;-82
2022/02/25 07:33:08;;;;;;;;;;;;;;;2.06;65.13;98549.38;5084022;28;20055;-81
2022/02/25 07:35:36;;;;;;;;;;;;;;;2.22;64.72;98553.16;5088621;28;19924;-79
2022/02/25 07:38:04;;;;;;;;;;;;;;;2.16;64.76;98556.78;5085762;28;19989;-78
2022/02/25 07:40:32;;;;;;;;;;;;;;;2.14;64.75;98561.59;5082857;28;19969;-80
2022/02/25 07:43:02;;;;;;;;;;;;;;;1.99;65.00;98562.13;5071751;28;19979;-80
2022/02/25 07:45:31;;;;;;;;;;;;;;;2.23;64.96;98559.31;5072054;28;19924;-79
2022/02/25 07:47:59;;;;;;;;;;;;;;;2.24;64.63;98569.00;5081448;28;19930;-81
2022/02/25 07:50:31;;;;;;;;;;;;;;;2.34;64.42;98571.84;5081478;28;19990;-80
2022/02/25 07:52:59;;;;;;;;;;;;;;;2.40;64.18;98570.91;5082128;28;19932;-80
2022/02/25 07:55:30;;;;;;;;;;;;;;;2.58;64.30;98578.72;5081254;28;19975;-85
2022/02/25 07:57:57;;;;;;;;;;;;;;;2.80;62.98;98580.66;5084278;28;19924;-80
2022/02/25 08:00:28;;;;;;;;;;;;;;;2.85;62.84;98578.88;5082491;28;20455;-85
2022/02/25 08:02:57;;;;;;;;;;;;;;;2.84;63.00;98587.97;5082589;28;20019;-83
2022/02/25 08:08:21;;;;;;;;;;;;;;;3.38;62.30;98592.78;5083730;28;20368;-81
2022/02/25 08:10:49;;;;;;;;;;;;;;;3.23;61.19;98592.56;5084883;28;19931;-79
2022/02/25 08:13:17;;;;;;;;;;;;;;;3.11;62.46;98595.38;5081248;28;19934;-79
2022/02/25 08:15:46;;;;;;;;;;;;;;;3.37;62.04;98597.34;5086915;28;19939;-80
2022/02/25 08:18:15;;;;;;;;;;;;;;;3.63;61.16;98595.81;5083438;28;19928;-80
2022/02/25 08:20:52;;;;;;;;;;;;;;;3.43;60.93;98595.56;5086808;28;20678;-78
2022/02/25 08:23:21;;;;;;;;;;;;;;;3.66;60.65;98599.88;5082939;28;19924;-81
2022/02/25 08:25:48;;;;;;;;;;;;;;;3.32;60.84;98599.97;5087477;28;19969;-81
2022/02/25 08:28:16;;;;;;;;;;;;;;;3.18;60.95;98595.19;5085668;28;20011;-83
2022/02/25 08:30:44;;;;;;;;;;;;;;;3.06;61.25;98600.66;5083236;28;20379;-81
2022/02/25 08:33:12;;;;;;;;;;;;;;;3.07;61.38;98603.09;5077754;28;20341;-81
2022/02/25 08:35:42;;;;;;;;;;;;;;;3.29;60.69;98611.19;5085215;28;20362;-79
2022/02/25 08:38:10;;;;;;;;;;;;;;;3.36;60.37;98605.66;5083218;28;19939;-79
2022/02/25 08:40:39;;;;;;;;;;;;;;;3.35;60.38;98606.72;5073603;28;19932;-81
2022/02/25 08:43:07;;;;;;;;;;;;;;;3.55;60.00;98607.00;5082987;28;19952;-79
2022/02/25 08:45:40;;;;;;;;;;;;;;;3.87;59.11;98600.94;5081554;28;19979;-81
2022/02/25 08:48:08;;;;;;;;;;;;;;;3.70;59.42;98601.00;5081849;28;20290;-81
2022/02/25 08:50:35;;;;;;;;;;;;;;;3.59;59.25;98610.81;5086348;28;20427;-82
2022/02/25 08:53:04;;;;;;;;;;;;;;;3.46;59.41;98599.59;5084862;28;20011;-80
2022/02/25 08:55:33;;;;;;;;;;;;;;;3.50;60.07;98612.28;5086508;28;19932;-81
2022/02/25 08:58:01;;;;;;;;;;;;;;;3.64;59.19;98608.19;5081374;28;20378;-80
2022/02/25 09:00:29;;;;;;;;;;;;;;;3.50;57.59;98600.75;5079846;28;19997;-82
2022/02/25 09:02:57;;;;;;;;;;;;;;;3.39;58.61;98605.16;5075791;28;19924;-81
2022/02/25 09:05:25;;;;;;;;;;;;;;;3.58;58.40;98598.44;5086011;28;19924;-80
2022/02/25 09:08:21;;;;;;;;;;;;;;;3.57;56.86;98591.44;5059281;28;20380;-79
2022/02/25 09:10:52;;;;;;;;;;;;;;;3.76;56.14;98585.75;5081565;28;19924;-82
2022/02/25 09:13:20;;;;;;;;;;;;;;;3.66;56.10;98599.88;5085527;28;20266;-81
2022/02/25 09:15:48;;;;;;;;;;;;;;;3.79;55.58;98594.13;5066523;28;19935;-80
2022/02/25 09:18:16;;;;;;;;;;;;;;;3.80;56.18;98601.13;5083242;28;19932;-80
2022/02/25 09:20:47;;;;;;;;;;;;;;;4.07;55.88;98601.19;5076162;28;19924;-80
2022/02/25 09:23:15;;;;;;;;;;;;;;;4.35;54.88;98610.06;5080363;28;19931;-83
2022/02/25 09:25:44;;;;;;;;;;;;;;;4.22;54.49;98599.72;5081112;28;19979;-80
2022/02/25 09:28:13;;;;;;;;;;;;;;;4.04;54.50;98601.66;5084744;28;20044;-78
2022/02/25 09:30:41;;;;;;;;;;;;;;;4.37;54.13;98610.66;5082580;28;21451;-81
2022/02/25 09:33:09;;;;;;;;;;;;;;;4.33;53.93;98612.22;5085543;28;20414;-81
2022/02/25 09:35:37;;;;;;;;;;;;;;;4.17;54.46;98603.97;5066972;28;20420;-81
2022/02/25 09:38:05;;;;;;;;;;;;;;;4.20;54.33;98599.97;5085749;28;20597;-81
2022/02/25 09:40:33;;;;;;;;;;;;;;;4.41;53.92;98609.88;5084039;28;19931;-81
2022/02/25 09:43:02;;;;;;;;;;;;;;;4.78;53.01;98600.25;5080617;28;19932;-84
2022/02/25 09:45:30;;;;;;;;;;;;;;;4.62;53.01;98607.38;5079759;28;19932;-82
2022/02/25 09:48:07;;;;;;;;;;;;;;;5.15;52.52;98606.44;5078101;28;20305;-82
2022/02/25 09:50:35;;;;;;;;;;;;;;;5.40;51.93;98602.31;5081546;28;19963;-82
2022/02/25 09:53:03;;;;;;;;;;;;;;;5.19;51.40;98609.44;5088272;28;19978;-80
2022/02/25 09:55:40;;;;;;;;;;;;;;;5.16;50.91;98605.38;5082438;28;19928;-82
2022/02/25 09:58:13;;;;;;;;;;;;;;;4.94;51.18;98594.72;5087528;28;19951;-81
2022/02/25 10:00:42;;;;;;;;;;;;;;;5.23;50.49;98608.69;5086798;28;19928;-82
2022/02/25 10:03:11;;;;;;;;;;;;;;;5.23;50.25;98597.09;5085504;28;19930;-81
2022/02/25 10:05:41;;;;;;;;;;;;;;;5.26;50.84;98601.94;5083706;28;19932;-83
2022/02/25 10:08:10;;;;;;;;;;;;;;;5.39;50.69;98609.59;5066015;28;20487;-82
2022/02/25 10:10:45;;;;;;;;;;;;;;;6.00;49.36;98599.13;5084599;28;19935;-83
2022/02/25 10:13:17;;;;;;;;;;;;;;;6.22;49.05;98603.50;5085759;28;19954;-81
2022/02/25 10:15:46;;;;;;;;;;;;;;;6.03;48.38;98605.88;5072938;28;19936;-81
2022/02/25 10:18:43;;;;;;;;;;;;;;;5.95;48.92;98606.38;5076239;28;19924;-84
2022/02/25 10:21:19;;;;;;;;;;;;;;;5.53;48.55;98609.91;5081243;28;20002;-81
2022/02/25 10:23:47;;;;;;;;;;;;;;;5.51;49.16;98604.00;5096643;28;20433;-84
2022/02/25 10:26:17;;;;;;;;;;;;;;;5.69;48.42;98600.84;5068649;28;20294;-81
2022/02/25 10:28:46;;;;;;;;;;;;;;;5.85;47.91;98593.63;5088864;28;20001;-80
2022/02/25 10:31:24;;;;;;;;;;;;;;;5.70;47.68;98591.69;5084552;28;19929;-83
2022/02/25 10:34:02;;;;;;;;;;;;;;;5.61;47.80;98592.47;5084843;28;20007;-79
2022/02/25 10:36:37;;;;;;;;;;;;;;;5.27;49.22;98600.88;5051193;28;19954;-83
2022/02/25 10:39:05;;;;;;;;;;;;;;;5.24;49.53;98604.91;5086678;28;19939;-81
2022/02/25 10:41:36;;;;;;;;;;;;;;;5.23;49.57;98595.22;5085150;28;19965;-84
2022/02/25 10:44:06;;;;;;;;;;;;;;;5.14;49.77;98604.03;5085822;28;19932;-81
2022/02/25 10:46:36;;;;;;;;;;;;;;;5.18;50.15;98597.88;5050339;28;19966;-82
2022/02/25 10:49:06;;;;;;;;;;;;;;;5.29;49.80;98590.66;5088033;28;19938;-81
2022/02/25 10:51:35;;;;;;;;;;;;;;;5.40;49.57;98596.91;5083459;28;19932;-85
2022/02/25 10:54:05;;;;;;;;;;;;;;;5.37;48.77;98597.44;5081960;28;19924;-84
2022/02/25 10:56:44;;;;;;;;;;;;;;;5.35;47.81;98596.88;5083724;28;20453;-81
2022/02/25 10:59:15;;;;;;;;;;;;;;;5.52;47.47;98584.03;5087986;28;19928;-83
2022/02/25 11:01:44;;;;;;;;;;;;;;;6.01;47.84;98583.72;5082802;28;19924;-80
2022/02/25 11:04:13;;;;;;;;;;;;;;;5.93;47.00;98576.97;5070959;28;19932;-82
2022/02/25 11:06:47;;;;;;;;;;;;;;;5.86;47.83;98587.19;5087646;28;20459;-81
2022/02/25 11:09:17;;;;;;;;;;;;;;;6.15;46.71;98587.56;5085890;28;19932;-83
2022/02/25 11:11:45;;;;;;;;;;;;;;;6.22;46.82;98571.13;5088423;27;19932;-81
2022/02/25 11:14:14;;;;;;;;;;;;;;;5.92;46.37;98579.94;5043552;28;19958;-83
2022/02/25 11:16:43;;;;;;;;;;;;;;;6.14;46.27;98585.13;5062153;28;19940;-82
2022/02/25 11:19:22;;;;;;;;;;;;;;;6.14;45.94;98571.66;5067882;28;20294;-82
2022/02/25 11:21:49;;;;;;;;;;;;;;;5.86;46.28;98572.88;5061718;28;19929;-84
2022/02/25 11:24:18;;;;;;;;;;;;;;;5.41;47.08;98566.19;5065370;28;19932;-82
2022/02/25 11:26:45;;;;;;;;;;;;;;;5.17;45.17;98587.34;5047761;28;20402;-81
2022/02/25 11:29:16;;;;;;;;;;;;;;;5.09;44.72;98585.94;5050689;28;20632;-81
2022/02/25 11:31:43;;;;;;;;;;;;;;;5.21;44.87;98591.94;5065309;28;19925;-82
2022/02/25 11:34:35;;;;;;;;;;;;;;;5.08;45.29;98584.31;5065315;28;19983;-79
2022/02/25 11:37:03;;;;;;;;;;;;;;;5.50;44.88;98578.13;5064519;28;19955;-82
2022/02/25 11:39:31;;;;;;;;;;;;;;;5.50;44.09;98576.22;5063584;28;19933;-81
2022/02/25 11:42:00;;;;;;;;;;;;;;;5.65;43.72;98570.09;5064579;28;19932;-83
2022/02/25 11:48:34;;;;;;;;;;;;;;;6.36;43.65;98568.72;5064323;28;20087;-84
2022/02/25 11:51:11;;;;;;;;;;;;;;;6.51;41.08;98568.75;5064374;28;19924;-83
2022/02/25 11:53:39;;;;;;;;;;;;;;;6.57;40.55;98579.28;5058851;28;19928;-79
2022/02/25 11:56:16;;;;;;;;;;;;;;;6.51;40.51;98583.06;5042384;28;20437;-83
2022/02/25 11:58:48;;;;;;;;;;;;;;;6.71;39.33;98568.78;5065092;28;20443;-83
2022/02/25 12:01:19;;;;;;;;;;;;;;;6.91;39.99;98572.53;5056336;28;19930;-82
2022/02/25 12:04:06;;;;;;;;;;;;;;;6.91;39.40;98564.41;5050885;28;20349;-82
2022/02/25 12:06:53;;;;;;;;;;;;;;;7.22;39.85;98557.09;5027090;28;20339;-81
2022/02/25 12:12:35;;;;;;;;;;;;;;;6.24;41.35;98571.69;5086735;27;2171789;-80
2022/02/25 12:15:04;;;;;;;;;;;;;;;6.21;40.61;98559.50;5138722;27;19939;-79
2022/02/25 12:17:36;;;;;;;;;;;;;;;6.10;40.11;98579.47;5144427;27;19927;-80
2022/02/25 12:20:05;;;;;;;;;;;;;;;6.08;40.68;98560.03;5141731;27;19992;-82
2022/02/25 12:22:47;;;;;;;;;;;;;;;6.21;41.60;98553.31;5140741;27;20389;-83
2022/02/25 12:25:14;;;;;;;;;;;;;;;6.16;41.06;98567.59;5143779;27;19931;-80
2022/02/25 12:27:43;;;;;;;;;;;;;;;6.01;41.42;98554.88;5134453;27;19929;-83
2022/02/25 12:30:35;;;;;;;;;;;;;;;6.26;41.30;98556.03;5128663;27;19972;-80
2022/02/25 12:33:19;;;;;;;;;;;;;;;6.47;40.46;98557.66;5140704;27;19931;-82
2022/02/25 12:35:47;;;;;;;;;;;;;;;6.68;41.05;98549.59;5126609;27;19923;-80
2022/02/25 12:38:22;;;;;;;;;;;;;;;6.72;40.79;98547.97;5139496;27;19923;-80
2022/02/25 12:40:52;;;;;;;;;;;;;;;6.87;40.32;98558.78;5142540;27;19924;-80
2022/02/25 12:43:22;;;;;;;;;;;;;;;6.63;41.00;98550.38;5137871;27;20436;-82
2022/02/25 12:45:50;;;;;;;;;;;;;;;6.47;41.59;98548.75;5140042;27;19931;-82
2022/02/25 12:48:21;;;;;;;;;;;;;;;6.28;41.80;98554.69;5131359;27;20078;-82
2022/02/25 12:50:49;;;;;;;;;;;;;;;6.13;41.61;98560.06;5126564;27;19949;-82
2022/02/25 12:53:17;;;;;;;;;;;;;;;6.21;41.99;98546.03;5137122;27;19946;-79
2022/02/25 12:55:53;;;;;;;;;;;;;;;6.23;42.69;98535.78;5137633;27;19969;-82
2022/02/25 12:58:33;;;;;;;;;;;;;;;6.33;43.22;98537.66;5138170;27;19995;-82
2022/02/25 13:01:01;;;;;;;;;;;;;;;6.38;42.62;98531.47;5141735;27;20870;-83
2022/02/25 13:03:31;;;;;;;;;;;;;;;6.24;42.35;98548.19;5141563;27;19933;-81
2022/02/25 13:06:03;;;;;;;;;;;;;;;6.27;42.60;98536.84;5139361;27;19939;-81
2022/02/25 13:08:37;;;;;;;;;;;;;;;6.36;41.40;98531.75;5142163;27;20407;-82
2022/02/25 13:11:05;;;;;;;;;;;;;;;6.45;42.21;98532.03;5132276;27;20313;-81
2022/02/25 13:13:37;;;;;;;;;;;;;;;6.70;41.62;98523.13;5124068;27;19924;-82
2022/02/25 13:16:07;;;;;;;;;;;;;;;6.49;40.89;98522.31;5127785;27;19932;-81
2022/02/25 13:18:36;;;;;;;;;;;;;;;6.68;40.69;98511.78;5132335;27;19927;-83
2022/02/25 13:21:07;;;;;;;;;;;;;;;6.62;41.13;98499.38;5146059;27;19977;-80
2022/02/25 13:23:37;;;;;;;;;;;;;;;6.49;40.53;98504.22;5112799;27;19963;-81
2022/02/25 13:26:06;;;;;;;;;;;;;;;6.63;39.52;98496.41;5133193;27;19953;-81
2022/02/25 13:28:38;;;;;;;;;;;;;;;6.65;40.09;98499.63;5131026;27;20585;-81
2022/02/25 13:31:07;;;;;;;;;;;;;;;6.59;40.33;98500.72;5129760;27;19966;-82
2022/02/25 13:33:35;;;;;;;;;;;;;;;6.53;40.05;98507.19;5135300;27;19923;-80
2022/02/25 13:36:05;;;;;;;;;;;;;;;6.58;40.34;98515.28;5133403;27;19974;-80
2022/02/25 13:38:37;;;;;;;;;;;;;;;6.47;40.23;98521.78;5120363;27;19984;-84
2022/02/25 13:41:08;;;;;;;;;;;;;;;6.39;40.16;98512.34;5134791;27;20370;-81
2022/02/25 13:43:44;;;;;;;;;;;;;;;6.05;40.54;98512.00;5116143;27;19947;-81
2022/02/25 13:46:14;;;;;;;;;;;;;;;6.04;40.78;98515.78;5113152;27;20014;-84
2022/02/25 13:54:25;;;;;;;;;;;;;;;6.11;41.81;98505.53;5117752;27;19931;-81
2022/02/25 13:56:56;;;;;;;;;;;;;;;5.93;41.72;98504.16;5127628;27;20397;-84
2022/02/25 13:59:27;;;;;;;;;;;;;;;5.93;42.29;98501.47;5124564;27;19923;-82
2022/02/25 14:02:03;;;;;;;;;;;;;;;5.91;42.73;98509.03;5117278;27;19958;-84
2022/02/25 14:04:31;;;;;;;;;;;;;;;5.87;42.63;98517.88;5125281;27;19924;-83
2022/02/25 14:07:00;;;;;;;;;;;;;;;5.75;43.63;98518.94;5112045;27;19923;-81
2022/02/25 14:09:30;;;;;;;;;;;;;;;5.76;43.85;98528.63;5125772;27;19950;-82
2022/02/25 14:12:03;;;;;;;;;;;;;;;5.54;45.25;98530.72;5114662;27;19973;-82
2022/02/25 14:14:34;;;;;;;;;;;;;;;5.58;47.55;98564.13;5096250;28;19924;-80
2022/02/25 14:17:02;;;;;;;;;;;;;;;5.26;50.39;98545.38;5097691;28;19951;-81
2022/02/25 14:19:30;;;;;;;;;;;;;;;4.94;52.58;98562.41;5097859;28;19962;-83
2022/02/25 14:22:09;;;;;;;;;;;;;;;4.71;54.32;98574.34;5102808;27;20015;-80
2022/02/25 14:24:43;;;;;;;;;;;;;;;4.62;57.13;98572.38;5088728;28;19931;-82
2022/02/25 14:27:12;;;;;;;;;;;;;;;4.35;60.68;98575.09;5099160;27;19927;-80
2022/02/25 14:29:42;;;;;;;;;;;;;;;4.16;62.06;98577.34;5098988;28;19924;-80
2022/02/25 14:32:13;;;;;;;;;;;;;;;4.18;62.22;98576.03;5084414;28;19946;-79
2022/02/25 14:34:43;;;;;;;;;;;;;;;4.11;62.86;98579.97;5094770;28;19962;-79
2022/02/25 14:37:20;;;;;;;;;;;;;;;4.38;62.94;98585.38;5096957;28;19989;-84
2022/02/25 14:39:48;;;;;;;;;;;;;;;4.47;62.94;98589.19;5097125;27;19931;-82
2022/02/25 14:42:21;;;;;;;;;;;;;;;4.40;62.91;98591.28;5098817;27;20660;-79
2022/02/25 14:44:52;;;;;;;;;;;;;;;4.27;63.98;98605.16;5097667;27;19932;-82
2022/02/25 14:47:20;;;;;;;;;;;;;;;4.05;65.21;98599.78;5086354;28;19923;-80
2022/02/25 14:49:48;;;;;;;;;;;;;;;4.20;65.41;98599.97;5097328;28;19924;-81
2022/02/25 14:52:16;;;;;;;;;;;;;;;4.35;65.94;98612.75;5095691;28;20337;-84
2022/02/25 14:54:45;;;;;;;;;;;;;;;4.01;67.04;98612.94;5102550;27;19939;-83
2022/02/25 14:57:15;;;;;;;;;;;;;;;3.85;68.23;98614.63;5097979;27;19931;-81
2022/02/25 14:59:46;;;;;;;;;;;;;;;3.71;68.83;98610.69;5098437;27;19924;-79
2022/02/25 15:02:15;;;;;;;;;;;;;;;3.81;68.60;98612.69;5106160;27;20578;-81
2022/02/25 15:04:44;;;;;;;;;;;;;;;4.26;67.77;98611.59;5101220;27;19930;-79
2022/02/25 15:07:37;;;;;;;;;;;;;;;4.52;66.95;98618.84;5097601;27;20393;-79
2022/02/25 15:10:07;;;;;;;;;;;;;;;4.66;65.34;98628.13;5102202;28;19963;-82
2022/02/25 15:12:38;;;;;;;;;;;;;;;4.59;65.80;98619.47;5120349;27;19983;-81
2022/02/25 15:15:08;;;;;;;;;;;;;;;4.40;65.98;98620.88;5122928;27;19928;-80
2022/02/25 15:17:38;;;;;;;;;;;;;;;4.40;65.96;98626.28;5121902;27;19924;-81
2022/02/25 15:20:06;;;;;;;;;;;;;;;4.23;66.83;98625.56;5120509;27;19932;-82
2022/02/25 15:22:37;;;;;;;;;;;;;;;4.05;66.27;98624.81;5116733;27;19924;-80
2022/02/25 15:25:06;;;;;;;;;;;;;;;4.09;66.71;98614.38;5121273;27;19945;-80
2022/02/25 15:27:34;;;;;;;;;;;;;;;4.22;66.69;98626.63;5115486;27;19963;-80
2022/02/25 15:30:03;;;;;;;;;;;;;;;4.31;66.36;98625.91;5122113;27;19928;-83
2022/02/25 15:32:31;;;;;;;;;;;;;;;4.44;66.13;98638.97;5118083;27;19937;-82
2022/02/25 15:35:00;;;;;;;;;;;;;;;4.35;66.17;98640.47;5122290;27;19931;-81
2022/02/25 15:37:28;;;;;;;;;;;;;;;4.44;66.32;98647.03;5123702;27;19939;-80
2022/02/25 15:40:20;;;;;;;;;;;;;;;4.22;65.82;98648.13;5084274;28;20282;-76
2022/02/25 15:43:13;;;;;;;;;;;;;;;4.39;66.03;98635.41;5123595;27;19927;-75
2022/02/25 15:46:01;;;;;;;;;;;;;;;4.47;66.06;98643.00;5124089;27;19927;-80
2022/02/25 15:48:29;;;;;;;;;;;;;;;4.39;65.56;98640.78;5110790;27;19927;-82
2022/02/25 15:50:58;;;;;;;;;;;;;;;4.29;65.70;98632.59;5120944;27;20009;-80
2022/02/25 15:53:27;;;;;;;;;;;;;;;4.27;65.37;98627.50;5122104;27;19924;-76
2022/02/25 15:55:59;;;;;;;;;;;;;;;4.10;65.89;98632.13;5106524;27;19927;-81
2022/02/25 15:58:31;;;;;;;;;;;;;;;3.98;66.52;98624.19;5127415;27;20385;-86
2022/02/25 16:01:00;;;;;;;;;;;;;;;3.84;66.22;98625.66;5112426;27;20413;-88
2022/02/25 16:03:28;;;;;;;;;;;;;;;3.92;65.69;98638.63;5119738;27;19927;-89
2022/02/25 16:05:56;;;;;;;;;;;;;;;4.02;65.49;98641.44;5121695;27;20397;-90
2022/02/25 16:08:25;;;;;;;;;;;;;;;4.07;65.17;98635.31;5111069;28;19950;-91
2022/02/25 16:10:54;;;;;;;;;;;;;;;4.03;64.69;98643.06;5124552;27;19974;-89
2022/02/25 16:13:23;;;;;;;;;;;;;;;4.06;64.48;98644.47;5120812;27;20710;-89
2022/02/25 16:18:44;;;;;;;;;;;;;;;4.11;64.17;98644.53;5125585;27;21752;-87
2022/02/25 16:21:13;;;;;;;;;;;;;;;4.12;64.76;98646.13;5124530;27;19966;-88
2022/02/25 16:23:43;;;;;;;;;;;;;;;3.97;64.25;98649.44;5120734;27;19924;-88
2022/02/25 16:26:11;;;;;;;;;;;;;;;4.03;64.03;98643.06;5130615;27;19931;-81
2022/02/25 16:28:40;;;;;;;;;;;;;;;4.13;63.69;98647.75;5122660;27;19923;-84
2022/02/25 16:31:11;;;;;;;;;;;;;;;3.97;63.90;98640.56;5095061;27;19938;-83
2022/02/25 16:33:40;;;;;;;;;;;;;;;4.04;63.50;98639.31;5108736;27;19923;-86
2022/02/25 16:36:08;;;;;;;;;;;;;;;3.89;63.97;98648.03;5108745;27;19923;-85
2022/02/25 16:38:37;;;;;;;;;;;;;;;4.04;63.96;98646.56;5115471;27;19972;-85
2022/02/25 16:41:09;;;;;;;;;;;;;;;3.96;63.81;98658.59;5127370;27;19923;-83
2022/02/25 16:43:37;;;;;;;;;;;;;;;3.77;64.29;98660.75;5125760;27;19946;-84
2022/02/25 16:46:08;;;;;;;;;;;;;;;3.83;64.45;98653.56;5130338;27;19924;-85
2022/02/25 16:49:01;;;;;;;;;;;;;;;3.83;64.32;98656.25;5109757;27;21338;-81
2022/02/25 16:51:28;;;;;;;;;;;;;;;3.77;64.70;98670.69;5124765;27;19923;-85
2022/02/25 16:53:56;;;;;;;;;;;;;;;3.90;64.55;98676.53;5125774;27;19932;-86
2022/02/25 16:56:50;;;;;;;;;;;;;;;3.82;64.39;98678.81;5128410;27;19923;-74
2022/02/25 16:59:21;;;;;;;;;;;;;;;3.66;64.73;98692.03;5136616;27;19923;-77
2022/02/25 17:01:48;;;;;;;;;;;;;;;3.65;64.84;98690.41;5112103;27;19939;-75
2022/02/25 17:04:17;;;;;;;;;;;;;;;3.63;65.10;98689.88;5107461;27;19927;-76
2022/02/25 17:06:49;;;;;;;;;;;;;;;3.51;65.33;98705.25;5127000;27;20488;-78
2022/02/25 17:09:19;;;;;;;;;;;;;;;3.54;64.96;98707.47;5128858;27;20004;-89
2022/02/25 17:11:50;;;;;;;;;;;;;;;3.48;65.48;98711.13;5106423;27;19923;-91
2022/02/25 17:14:24;;;;;;;;;;;;;;;3.63;64.68;98716.75;5102306;28;20376;-80
2022/02/25 17:16:53;;;;;;;;;;;;;;;3.57;65.13;98724.94;5087463;28;19975;-85
2022/02/25 17:19:21;;;;;;;;;;;;;;;3.67;64.57;98722.41;5102574;27;19924;-80
2022/02/25 17:21:51;;;;;;;;;;;;;;;3.49;65.30;98734.25;5110324;27;19923;-81
2022/02/25 17:24:19;;;;;;;;;;;;;;;3.71;65.07;98731.63;5113690;27;19928;-80
2022/02/25 17:26:47;;;;;;;;;;;;;;;3.71;64.46;98737.00;5113756;27;19928;-80
2022/02/25 17:29:16;;;;;;;;;;;;;;;3.96;63.87;98739.25;5112895;27;19931;-87
2022/02/25 17:31:46;;;;;;;;;;;;;;;4.06;63.61;98750.13;5098697;27;19974;-80
2022/02/25 17:34:34;;;;;;;;;;;;;;;3.83;64.45;98751.13;5109603;27;20023;-79
2022/02/25 17:37:02;;;;;;;;;;;;;;;3.89;64.39;98750.19;5116999;27;20464;-81
2022/02/25 17:39:30;;;;;;;;;;;;;;;3.90;64.62;98756.38;5111341;27;19961;-78
2022/02/25 17:41:58;;;;;;;;;;;;;;;3.83;65.05;98774.53;5099155;27;19924;-85
2022/02/25 17:44:26;;;;;;;;;;;;;;;3.78;64.06;98775.28;5094613;28;19930;-80
2022/02/25 17:46:56;;;;;;;;;;;;;;;3.85;64.25;98767.03;5106087;27;19924;-80
2022/02/25 17:49:24;;;;;;;;;;;;;;;3.78;64.36;98769.91;5110014;27;19924;-80
2022/02/25 17:54:45;;;;;;;;;;;;;;;3.70;65.03;98774.88;5109045;27;19924;-83
2022/02/25 17:57:13;;;;;;;;;;;;;;;3.94;64.29;98770.91;5109393;27;19928;-82
2022/02/25 17:59:44;;;;;;;;;;;;;;;3.87;64.60;98778.34;5107276;27;19972;-81
2022/02/25 18:02:13;;;;;;;;;;;;;;;3.92;63.96;98765.78;5110940;27;19924;-85
2022/02/25 18:04:41;;;;;;;;;;;;;;;4.01;63.96;98773.44;5105610;28;19928;-82
2022/02/25 18:07:09;;;;;;;;;;;;;;;4.13;63.40;98771.47;5115728;27;20006;-83
2022/02/25 18:09:37;;;;;;;;;;;;;;;4.09;64.07;98781.88;5110039;27;19971;-82
2022/02/25 18:12:06;;;;;;;;;;;;;;;3.86;64.41;98774.03;5113107;27;19932;-79
2022/02/25 18:14:34;;;;;;;;;;;;;;;3.66;65.11;98772.66;5110805;27;19924;-80
2022/02/25 18:17:11;;;;;;;;;;;;;;;3.67;65.18;98774.31;5111287;27;19981;-82
2022/02/25 18:19:40;;;;;;;;;;;;;;;3.60;65.46;98778.22;5106938;27;19930;-80
2022/02/25 18:22:08;;;;;;;;;;;;;;;3.54;65.42;98782.69;5104368;27;19931;-82
2022/02/25 18:24:36;;;;;;;;;;;;;;;3.49;65.59;98776.41;5113085;27;19923;-82
2022/02/25 18:27:04;;;;;;;;;;;;;;;3.56;65.51;98772.50;5111109;27;19955;-83
2022/02/25 18:29:33;;;;;;;;;;;;;;;3.57;65.30;98779.53;5111170;27;19930;-80
2022/02/25 18:32:03;;;;;;;;;;;;;;;3.70;64.97;98767.63;5114688;27;19959;-80
2022/02/25 18:34:30;;;;;;;;;;;;;;;3.54;65.46;98769.25;5103455;27;20385;-79
2022/02/25 18:37:00;;;;;;;;;;;;;;;3.55;65.54;98776.25;5109156;27;19985;-79
2022/02/25 18:39:52;;;;;;;;;;;;;;;3.57;65.58;98774.16;5109080;27;19924;-80
2022/02/25 18:42:24;;;;;;;;;;;;;;;3.68;65.11;98778.63;5108304;27;19924;-78
2022/02/25 18:44:53;;;;;;;;;;;;;;;3.61;65.52;98775.28;5108921;27;19930;-78
2022/02/25 18:47:21;;;;;;;;;;;;;;;3.61;65.42;98786.00;5099313;27;19934;-83
2022/02/25 18:49:51;;;;;;;;;;;;;;;3.58;65.63;98783.84;5098371;27;19935;-82
2022/02/25 18:52:20;;;;;;;;;;;;;;;3.61;65.03;98796.75;5114263;27;19924;-79
2022/02/25 18:54:49;;;;;;;;;;;;;;;3.48;65.76;98797.09;5110301;27;20332;-78
2022/02/25 18:57:17;;;;;;;;;;;;;;;3.45;66.15;98797.56;5103083;27;19931;-79
2022/02/25 18:59:46;;;;;;;;;;;;;;;3.53;66.11;98797.19;5108210;27;20271;-85
2022/02/25 19:02:15;;;;;;;;;;;;;;;3.63;66.14;98813.47;5108557;27;19925;-79
2022/02/25 19:04:43;;;;;;;;;;;;;;;3.61;66.22;98810.19;5102978;27;19924;-84
2022/02/25 19:07:11;;;;;;;;;;;;;;;3.52;67.12;98813.56;5092039;27;19928;-79
2022/02/25 19:09:41;;;;;;;;;;;;;;;3.32;67.88;98819.38;5104029;27;19985;-77
2022/02/25 19:12:36;;;;;;;;;;;;;;;3.65;67.60;98819.41;5127075;27;20487;-77
2022/02/25 19:15:04;;;;;;;;;;;;;;;3.52;68.04;98825.13;5124181;27;19939;-81
2022/02/25 19:17:32;;;;;;;;;;;;;;;3.47;67.97;98826.91;5126340;27;19927;-76